Time;durP1;ratioP1;P1;durP2;ratioP2;P2;SDS_P1;SDS_P2;PMS_P1;PMS_P2;Temp;Humidity;BMP_temperature;BMP_pressure;BME280_temperature;BME280_humidity;BME280_pressure;Samples;Min_cycle;Max_cycle;Signal;HPM_P1;HPM_P2
2022/12/14 00:01:45;;;;;;;91.47;40.70;;;;;;;-2.20;67.07;99688.34;4483071;32;33744;-69
2022/12/14 00:04:16;;;;;;;73.25;36.28;;;;;;;-2.27;67.58;99682.56;4483046;32;32695;-69
2022/12/14 00:06:43;;;;;;;74.40;35.67;;;;;;;-2.21;67.97;99678.06;4485066;31;34095;-69
2022/12/14 00:09:11;;;;;;;61.95;32.40;;;;;;;-2.36;69.27;99669.91;4484197;31;34520;-69
2022/12/14 00:11:39;;;;;;;58.97;32.97;;;;;;;-2.38;70.17;99677.41;4483640;31;34591;-69
2022/12/14 00:14:06;;;;;;;59.53;32.78;;;;;;;-2.10;69.66;99668.91;4481544;32;32884;-69
2022/12/14 00:16:34;;;;;;;66.07;32.50;;;;;;;-2.50;71.77;99660.13;4483415;31;33809;-69
2022/12/14 00:19:04;;;;;;;54.15;28.30;;;;;;;-2.65;73.19;99655.41;4483810;32;33909;-69
2022/12/14 00:21:32;;;;;;;52.25;27.05;;;;;;;-2.55;73.04;99663.88;4484089;31;33959;-69
2022/12/14 00:23:59;;;;;;;50.45;26.08;;;;;;;-2.54;73.19;99655.53;4484133;31;33282;-69
2022/12/14 00:26:30;;;;;;;53.38;25.25;;;;;;;-2.39;73.02;99664.56;4490055;31;34248;-69
2022/12/14 00:28:59;;;;;;;53.70;25.77;;;;;;;-2.42;73.41;99669.34;4486008;31;33043;-69
2022/12/14 00:31:27;;;;;;;50.70;26.37;;;;;;;-2.19;72.87;99664.75;4485259;31;32333;-69
2022/12/14 00:33:54;;;;;;;52.13;25.58;;;;;;;-1.99;72.76;99670.75;4485200;32;32424;-69
2022/12/14 00:36:22;;;;;;;48.53;23.85;;;;;;;-1.89;73.26;99665.78;4486656;31;33355;-69
2022/12/14 00:38:49;;;;;;;49.03;24.58;;;;;;;-1.89;74.07;99667.41;4491117;31;34535;-69
2022/12/14 00:41:18;;;;;;;45.08;24.90;;;;;;;-1.60;73.19;99658.28;4494304;31;34003;-69
2022/12/14 00:43:45;;;;;;;44.60;23.87;;;;;;;-2.24;76.35;99662.53;4487298;31;33485;-69
2022/12/14 00:46:16;;;;;;;47.53;24.55;;;;;;;-1.71;75.69;99663.13;4500468;31;33852;-69
2022/12/14 00:48:44;;;;;;;44.47;24.15;;;;;;;-1.79;75.34;99663.31;4493053;31;33674;-69
2022/12/14 00:51:13;;;;;;;51.10;24.85;;;;;;;-1.71;75.77;99675.84;4492615;31;33672;-69
2022/12/14 00:53:43;;;;;;;46.37;23.75;;;;;;;-1.49;75.29;99678.66;4487552;31;34230;-69
2022/12/14 00:56:11;;;;;;;47.95;22.65;;;;;;;-1.35;74.48;99674.78;4493598;31;33975;-69
2022/12/14 00:58:38;;;;;;;49.83;24.85;;;;;;;-1.84;76.01;99679.78;4493399;31;33895;-69
2022/12/14 01:01:11;;;;;;;48.35;25.02;;;;;;;-1.47;75.34;99677.12;4493780;31;33695;-69
2022/12/14 01:03:39;;;;;;;46.65;24.12;;;;;;;-1.18;74.70;99677.19;4491090;31;34464;-69
2022/12/14 01:06:15;;;;;;;50.85;25.02;;;;;;;-1.40;75.37;99679.47;4485249;32;33811;-69
2022/12/14 01:08:43;;;;;;;43.28;24.73;;;;;;;-1.72;76.84;99689.28;4492468;31;34568;-69
2022/12/14 01:11:11;;;;;;;51.75;24.83;;;;;;;-1.63;76.41;99674.88;4498182;31;33859;-69
2022/12/14 01:13:40;;;;;;;47.22;23.95;;;;;;;-1.31;75.57;99680.31;4493924;31;33625;-69
2022/12/14 01:16:10;;;;;;;47.62;23.60;;;;;;;-1.33;75.06;99676.75;4495360;31;34526;-69
2022/12/14 01:18:38;;;;;;;48.78;25.35;;;;;;;-1.00;74.31;99673.75;4493002;31;33653;-69
2022/12/14 01:21:10;;;;;;;61.40;25.50;;;;;;;-1.46;76.14;99679.81;4485175;32;34372;-69
2022/12/14 01:23:38;;;;;;;51.28;25.50;;;;;;;-1.10;74.63;99683.88;4488663;31;34264;-69
2022/12/14 01:26:05;;;;;;;47.85;24.70;;;;;;;-1.26;75.53;99681.59;4488539;31;32519;-69
2022/12/14 01:28:33;;;;;;;48.87;25.12;;;;;;;-0.96;74.68;99679.13;4493973;31;33805;-69
2022/12/14 01:31:22;;;;;;;46.67;24.35;;;;;;;-1.17;75.17;99683.19;4475387;31;33766;-69
2022/12/14 01:33:49;;;;;;;49.53;25.60;;;;;;;-1.39;75.75;99682.16;4489656;31;33637;-69
2022/12/14 01:36:24;;;;;;;50.33;25.00;;;;;;;-1.44;76.79;99672.34;4497540;31;33652;-69
2022/12/14 01:38:57;;;;;;;50.95;26.17;;;;;;;-1.74;77.86;99673.00;4486338;31;32327;-69
2022/12/14 01:41:30;;;;;;;50.40;25.52;;;;;;;-1.46;77.11;99677.28;4493429;31;33562;-69
2022/12/14 01:44:08;;;;;;;47.72;24.87;;;;;;;-1.29;75.97;99671.16;4494925;31;33412;-69
2022/12/14 01:46:39;;;;;;;50.08;24.58;;;;;;;-1.16;75.36;99660.44;4492684;31;33912;-69
2022/12/14 01:49:31;;;;;;;48.38;24.70;;;;;;;-1.07;75.23;99666.31;4480364;31;33498;-69
2022/12/14 01:52:20;;;;;;;53.38;25.67;;;;;;;-1.39;76.31;99659.31;4495717;31;33749;-69
2022/12/14 01:54:55;;;;;;;51.20;26.00;;;;;;;-1.22;75.93;99659.88;4487703;31;33282;-69
2022/12/14 01:57:46;;;;;;;48.22;23.80;;;;;;;-1.06;74.83;99652.88;4494369;31;34734;-69
2022/12/14 02:00:14;;;;;;;50.58;24.08;;;;;;;-0.97;74.67;99651.88;4493645;31;34392;-69
2022/12/14 02:02:47;;;;;;;48.00;24.12;;;;;;;-1.33;75.88;99646.25;4494575;31;34272;-69
2022/12/14 02:05:16;;;;;;;48.95;25.17;;;;;;;-1.24;75.46;99646.16;4478006;32;32871;-69
2022/12/14 02:07:44;;;;;;;49.50;24.25;;;;;;;-1.17;75.31;99648.50;4489397;31;33821;-69
2022/12/14 02:10:15;;;;;;;47.35;24.27;;;;;;;-1.11;75.30;99648.13;4495295;31;34612;-69
2022/12/14 02:12:47;;;;;;;51.80;24.48;;;;;;;-1.41;76.37;99644.66;4470758;31;34339;-69
2022/12/14 02:15:15;;;;;;;49.38;25.00;;;;;;;-1.66;76.81;99639.94;4485172;32;33362;-69
2022/12/14 02:17:44;;;;;;;53.25;25.08;;;;;;;-1.40;76.34;99646.47;4488238;31;34541;-69
2022/12/14 02:20:12;;;;;;;53.80;24.87;;;;;;;-1.41;75.71;99643.03;4487778;31;34114;-69
2022/12/14 02:22:52;;;;;;;51.53;25.25;;;;;;;-1.98;78.08;99640.44;4483658;31;33638;-69
2022/12/14 02:25:32;;;;;;;49.33;23.58;;;;;;;-1.77;77.57;99642.28;4483475;32;33235;-69
2022/12/14 02:28:28;;;;;;;50.95;25.67;;;;;;;-1.48;76.17;99642.34;4482769;31;32452;-69
2022/12/14 02:31:25;;;;;;;49.53;24.00;;;;;;;-1.22;74.91;99644.63;4472797;32;34408;-69
2022/12/14 02:33:57;;;;;;;53.03;25.83;;;;;;;-1.77;76.94;99644.81;4484019;31;33664;-69
2022/12/14 02:36:37;;;;;;;53.25;24.87;;;;;;;-1.70;77.36;99642.06;4491246;31;33217;-69
2022/12/14 02:39:33;;;;;;;45.65;23.12;;;;;;;-1.52;76.60;99636.09;4479173;31;34442;-69
2022/12/14 02:42:12;;;;;;;50.35;25.25;;;;;;;-1.44;76.16;99634.25;4484496;31;34579;-69
2022/12/14 02:44:43;;;;;;;51.58;23.10;;;;;;;-1.55;75.84;99624.75;4479373;31;33949;-69
2022/12/14 02:47:25;;;;;;;50.60;23.90;;;;;;;-1.66;77.07;99619.63;4493602;31;34096;-69
2022/12/14 02:49:58;;;;;;;47.33;22.80;;;;;;;-1.39;76.04;99620.31;4461163;31;34614;-69
2022/12/14 02:52:51;;;;;;;45.47;21.12;;;;;;;-1.82;77.65;99622.41;4484353;31;33964;-69
2022/12/14 02:55:27;;;;;;;48.65;22.37;;;;;;;-1.56;77.01;99613.72;4489993;31;34497;-69
2022/12/14 02:58:00;;;;;;;51.97;23.75;;;;;;;-1.75;78.74;99603.56;4493741;31;33412;-69
2022/12/14 03:00:31;;;;;;;46.53;22.87;;;;;;;-1.73;77.95;99606.25;4493465;31;34817;-69
2022/12/14 03:02:59;;;;;;;45.28;20.62;;;;;;;-1.51;77.62;99609.03;4484713;31;33881;-69
2022/12/14 03:05:27;;;;;;;44.75;20.62;;;;;;;-1.37;76.60;99607.72;4468574;31;32247;-69
2022/12/14 03:07:57;;;;;;;43.58;19.00;;;;;;;-1.14;75.71;99612.28;4488747;31;34108;-69
2022/12/14 03:10:43;;;;;;;43.10;20.70;;;;;;;-1.16;76.05;99609.59;4487849;31;33754;-69
2022/12/14 03:13:30;;;;;;;53.78;22.40;;;;;;;-1.45;78.12;99605.41;4486967;31;34697;-69
2022/12/14 03:16:01;;;;;;;45.05;20.77;;;;;;;-1.44;77.77;99607.19;4470421;32;35154;-69
2022/12/14 03:18:35;;;;;;;49.20;21.12;;;;;;;-1.33;76.95;99594.50;4486607;31;34171;-69
2022/12/14 03:21:05;;;;;;;41.88;20.05;;;;;;;-1.13;76.52;99604.78;4478855;31;34430;-69
2022/12/14 03:23:39;;;;;;;47.25;19.87;;;;;;;-0.71;75.13;99601.62;4462161;31;32284;-69
2022/12/14 03:26:18;;;;;;;46.90;20.13;;;;;;;-1.15;77.07;99611.38;4482952;31;35275;-69
2022/12/14 03:28:49;;;;;;;46.83;20.85;;;;;;;-0.93;76.02;99605.63;4476762;31;34271;-69
2022/12/14 03:31:33;;;;;;;42.83;19.08;;;;;;;-1.46;77.85;99603.59;4477430;31;33416;-69
2022/12/14 03:34:04;;;;;;;45.27;19.20;;;;;;;-1.60;79.19;99598.97;4476330;31;33829;-69
2022/12/14 03:36:53;;;;;;;45.10;20.12;;;;;;;-1.34;78.53;99595.28;4474270;31;34545;-69
2022/12/14 03:39:26;;;;;;;48.20;19.35;;;;;;;-0.85;77.19;99586.81;4484448;31;33366;-69
2022/12/14 03:42:16;;;;;;;43.33;18.35;;;;;;;-1.23;77.88;99582.75;4476439;31;33578;-69
2022/12/14 03:44:53;;;;;;;47.88;19.58;;;;;;;-0.95;77.62;99591.88;4496430;31;34613;-69
2022/12/14 03:47:51;;;;;;;45.45;19.35;;;;;;;-0.76;77.26;99581.66;4492840;31;33784;-69
2022/12/14 03:50:50;;;;;;;54.65;21.20;;;;;;;-1.33;78.99;99582.72;4490096;31;33770;-69
2022/12/14 03:53:23;;;;;;;49.95;21.98;;;;;;;-1.17;78.29;99589.16;4481728;31;33763;-69
2022/12/14 03:56:09;;;;;;;54.00;20.87;;;;;;;-0.67;76.87;99582.44;4499613;31;33993;-69
2022/12/14 03:58:49;;;;;;;;;;;;;;;-0.81;77.58;99583.81;4472901;31;33973;-69
2022/12/14 04:02:02;;;;;;;62.53;26.83;;;;;;;-0.88;77.21;99571.31;4493152;31;33832;-69
2022/12/14 04:04:33;;;;;;;55.67;23.25;;;;;;;-1.00;78.28;99556.78;4488325;31;34553;-69
2022/12/14 04:07:14;;;;;;;51.00;23.73;;;;;;;-0.87;78.06;99562.91;4491283;31;33730;-69
2022/12/14 04:09:47;;;;;;;56.95;22.52;;;;;;;-0.46;76.58;99573.19;4480030;31;34486;-69
2022/12/14 04:20:54;;;;;;;49.78;21.00;;;;;;;-0.63;77.38;99565.00;4490725;31;33855;-69
2022/12/14 04:26:18;;;;;;;46.40;20.35;;;;;;;-0.80;77.68;99547.44;4458349;31;34310;-69
2022/12/14 04:29:59;;;;;;;54.45;22.92;;;;;;;-0.89;78.28;99544.09;4478135;31;33958;-69
2022/12/14 04:32:03;;;;;;;58.75;21.87;;;;;;;-0.81;78.21;99538.03;4481383;31;33468;-69
2022/12/14 04:34:32;;;;;;;51.88;21.45;;;;;;;-0.61;77.73;99532.97;4484765;31;33180;-69
2022/12/14 04:37:03;;;;;;;51.10;21.17;;;;;;;-1.19;80.13;99517.84;4492982;31;34118;-69
2022/12/14 04:39:52;;;;;;;59.22;23.02;;;;;;;-0.55;78.77;99512.25;4496327;31;33807;-69
2022/12/14 04:42:30;;;;;;;61.75;24.92;;;;;;;-1.10;80.07;99512.66;4494754;31;33836;-69
2022/12/14 04:45:05;;;;;;;50.90;22.75;;;;;;;-1.37;81.40;99516.25;4485430;32;33258;-69
2022/12/14 04:47:35;;;;;;;51.90;21.37;;;;;;;-0.87;79.75;99506.97;4484000;32;33960;-69
2022/12/14 04:50:26;;;;;;;51.88;22.65;;;;;;;-0.96;79.96;99501.12;4484211;32;34762;-69
2022/12/14 04:52:58;;;;;;;60.03;23.58;;;;;;;-0.80;79.72;99501.66;4473375;32;33626;-69
2022/12/14 04:55:28;;;;;;;58.58;24.48;;;;;;;-1.00;80.46;99500.88;4483981;32;33315;-69
2022/12/14 04:58:13;;;;;;;52.30;22.45;;;;;;;-0.72;79.01;99493.00;4485187;32;33929;-69
2022/12/14 05:00:50;;;;;;;45.88;20.40;;;;;;;-0.78;79.83;99492.50;4470816;32;33362;-69
2022/12/14 05:03:31;;;;;;;46.37;20.75;;;;;;;-0.84;79.44;99492.88;4485178;32;34007;-69
2022/12/14 05:06:08;;;;;;;50.65;22.35;;;;;;;-0.86;79.92;99494.41;4472891;31;34136;-69
2022/12/14 05:09:01;;;;;;;50.38;21.25;;;;;;;-0.79;79.70;99503.47;4471280;32;34077;-69
2022/12/14 05:11:46;;;;;;;49.22;20.70;;;;;;;-0.64;78.64;99512.38;4491871;31;33922;-69
2022/12/14 05:14:25;;;;;;;45.72;20.12;;;;;;;-0.78;79.11;99520.47;4497792;31;33552;-69
2022/12/14 05:16:53;;;;;;;45.58;19.90;;;;;;;-0.54;78.98;99528.37;4480540;31;33502;-69
2022/12/14 05:19:25;;;;;;;43.13;20.85;;;;;;;-0.61;78.91;99527.87;4475581;31;33478;-69
2022/12/14 05:21:53;;;;;;;48.35;20.37;;;;;;;-0.51;78.94;99528.66;4496586;31;33788;-69
2022/12/14 05:24:20;;;;;;;43.95;21.12;;;;;;;-0.47;78.76;99516.31;4491577;31;33695;-69
2022/12/14 05:26:48;;;;;;;46.05;20.15;;;;;;;-0.73;78.90;99510.72;4492255;31;33541;-69
2022/12/14 05:29:16;;;;;;;52.95;20.95;;;;;;;-0.62;79.30;99503.22;4477686;31;34443;-69
2022/12/14 05:31:44;;;;;;;49.95;20.52;;;;;;;-0.40;78.42;99512.63;4497306;31;33969;-69
2022/12/14 05:34:16;;;;;;;39.05;18.08;;;;;;;-0.49;77.99;99502.56;4493221;31;33914;-69
2022/12/14 05:36:44;;;;;;;46.60;19.23;;;;;;;-0.51;77.92;99486.28;4494718;31;34184;-69
2022/12/14 05:39:12;;;;;;;43.38;19.75;;;;;;;-0.18;77.17;99488.94;4485414;31;33400;-69
2022/12/14 05:41:39;;;;;;;39.95;18.60;;;;;;;-0.34;77.74;99482.59;4488836;31;34453;-69
2022/12/14 05:44:07;;;;;;;38.67;17.27;;;;;;;-0.57;77.42;99492.53;4493660;31;33502;-69
2022/12/14 05:46:34;;;;;;;36.75;17.58;;;;;;;-0.52;76.86;99491.25;4498090;31;33266;-69
2022/12/14 05:49:02;;;;;;;40.83;18.73;;;;;;;-0.70;77.04;99486.41;4489913;31;34170;-69
2022/12/14 05:51:30;;;;;;;37.97;17.50;;;;;;;-0.69;78.07;99498.37;4490771;31;34024;-69
2022/12/14 05:53:57;;;;;;;38.50;17.20;;;;;;;-0.51;77.26;99498.13;4484950;32;33388;-69
2022/12/14 05:56:25;;;;;;;37.65;18.55;;;;;;;-0.76;77.82;99496.06;4479077;31;33359;-69
2022/12/14 05:58:53;;;;;;;35.03;17.40;;;;;;;-0.85;78.60;99480.03;4483960;31;33661;-69
2022/12/14 06:01:20;;;;;;;34.45;16.08;;;;;;;-0.90;79.26;99466.06;4495403;31;32193;-69
2022/12/14 06:03:52;;;;;;;35.95;18.33;;;;;;;-0.74;77.87;99460.59;4496050;31;33813;-69
2022/12/14 06:06:20;;;;;;;37.05;17.37;;;;;;;-0.86;78.64;99463.00;4497089;31;33320;-69
2022/12/14 06:08:47;;;;;;;34.67;16.40;;;;;;;-0.98;79.04;99454.34;4497186;31;35258;-69
2022/12/14 06:11:17;;;;;;;35.97;16.62;;;;;;;-0.68;78.04;99458.56;4497095;31;34586;-69
2022/12/14 06:13:46;;;;;;;30.20;16.05;;;;;;;-0.41;76.46;99444.69;4476058;31;33750;-69
2022/12/14 06:16:21;;;;;;;35.65;16.58;;;;;;;-0.74;77.94;99435.16;4477745;31;32985;-69
2022/12/14 06:18:54;;;;;;;33.63;16.10;;;;;;;-0.18;76.03;99458.41;4491207;31;34622;-70
2022/12/14 06:21:26;;;;;;;36.63;17.30;;;;;;;-0.91;77.72;99454.09;4482725;31;33526;-70
2022/12/14 06:23:54;;;;;;;34.50;18.17;;;;;;;-1.01;77.92;99458.38;4486749;31;34367;-69
2022/12/14 06:26:22;;;;;;;35.33;17.73;;;;;;;-0.43;76.39;99464.03;4485711;31;33221;-69
2022/12/14 06:28:50;;;;;;;37.30;16.42;;;;;;;-0.80;77.55;99473.69;4489005;31;34828;-70
2022/12/14 06:31:20;;;;;;;34.53;16.48;;;;;;;-0.26;75.71;99490.87;4492882;31;32564;-69
2022/12/14 06:33:48;;;;;;;31.62;16.58;;;;;;;-0.49;76.68;99478.78;4486994;31;33596;-69
2022/12/14 06:36:20;;;;;;;38.53;17.27;;;;;;;-0.29;75.04;99452.41;4494680;31;33371;-69
2022/12/14 06:38:48;;;;;;;36.50;17.55;;;;;;;-0.76;76.75;99444.31;4481326;31;33888;-70
2022/12/14 06:41:16;;;;;;;29.77;15.32;;;;;;;-0.57;76.26;99451.81;4494371;31;33949;-70
2022/12/14 06:43:44;;;;;;;31.17;15.65;;;;;;;-0.89;77.34;99467.81;4491079;31;33945;-70
2022/12/14 06:46:18;;;;;;;28.12;15.18;;;;;;;-0.68;77.12;99464.53;4490203;31;34203;-69
2022/12/14 06:48:53;;;;;;;29.75;16.05;;;;;;;-0.56;76.92;99467.22;4479925;31;33592;-69
2022/12/14 06:51:22;;;;;;;34.25;18.20;;;;;;;-0.54;75.79;99472.41;4473743;31;34700;-69
2022/12/14 06:53:51;;;;;;;33.67;15.80;;;;;;;-0.64;76.27;99463.12;4482435;31;33731;-69
2022/12/14 06:56:19;;;;;;;32.78;15.68;;;;;;;-0.43;75.67;99461.47;4484615;32;33496;-69
2022/12/14 06:58:47;;;;;;;29.67;15.18;;;;;;;-0.62;76.72;99451.44;4483483;31;33457;-69
2022/12/14 07:01:17;;;;;;;32.40;15.20;;;;;;;-0.56;76.16;99456.12;4476803;32;33808;-69
2022/12/14 07:03:53;;;;;;;32.47;15.85;;;;;;;-0.18;74.08;99449.09;4479957;32;32845;-69
2022/12/14 07:06:22;;;;;;;32.10;15.48;;;;;;;-0.55;76.09;99437.56;4484460;31;33264;-69
2022/12/14 07:08:55;;;;;;;30.05;14.43;;;;;;;-0.61;76.40;99430.31;4481980;32;33849;-69
2022/12/14 07:11:23;;;;;;;30.05;14.80;;;;;;;-0.67;76.65;99438.34;4488352;31;33803;-70
2022/12/14 07:13:52;;;;;;;29.87;14.70;;;;;;;-0.36;75.01;99443.41;4484088;32;34122;-69
2022/12/14 07:16:22;;;;;;;29.50;14.52;;;;;;;-0.60;76.08;99448.28;4483009;32;33914;-69
2022/12/14 07:18:50;;;;;;;32.17;15.18;;;;;;;-0.35;75.08;99445.16;4479055;32;33144;-69
2022/12/14 07:21:19;;;;;;;27.37;14.43;;;;;;;-0.45;75.62;99440.09;4488928;31;34626;-69
2022/12/14 07:23:47;;;;;;;35.78;16.17;;;;;;;-0.28;75.14;99437.28;4490912;31;34527;-70
2022/12/14 07:26:18;;;;;;;29.77;15.38;;;;;;;-0.08;74.89;99430.34;4487532;31;34166;-70
2022/12/14 07:28:46;;;;;;;29.67;15.40;;;;;;;-0.70;76.05;99424.47;4473253;32;33908;-70
2022/12/14 07:31:16;;;;;;;28.08;13.68;;;;;;;-0.33;74.96;99418.22;4484780;32;33936;-70
2022/12/14 07:33:44;;;;;;;33.05;15.50;;;;;;;-0.48;76.20;99414.44;4486021;31;35841;-70
2022/12/14 07:36:14;;;;;;;30.25;16.30;;;;;;;-0.61;76.47;99425.25;4469066;31;34789;-70
2022/12/14 07:38:43;;;;;;;30.62;15.57;;;;;;;-0.46;75.61;99416.31;4472131;31;34417;-70
2022/12/14 07:41:14;;;;;;;29.98;15.35;;;;;;;-0.56;76.74;99435.78;4486036;32;33739;-69
2022/12/14 07:43:48;;;;;;;30.33;15.40;;;;;;;-0.41;76.46;99449.75;4495250;31;33812;-70
2022/12/14 07:46:19;;;;;;;34.22;16.50;;;;;;;-0.15;75.15;99456.12;4490054;31;33473;-71
2022/12/14 07:48:49;;;;;;;31.15;16.10;;;;;;;-0.22;75.17;99459.78;4492366;31;33574;-71
2022/12/14 07:51:19;;;;;;;32.78;16.23;;;;;;;-0.45;76.21;99453.72;4484872;31;34484;-70
2022/12/14 07:53:47;;;;;;;35.53;16.95;;;;;;;-0.44;75.58;99458.03;4485256;31;33420;-70
2022/12/14 07:56:17;;;;;;;36.10;16.98;;;;;;;-0.85;77.61;99459.69;4484758;32;33478;-70
2022/12/14 07:58:45;;;;;;;38.55;18.33;;;;;;;-0.93;77.65;99455.62;4483507;31;33913;-70
2022/12/14 08:01:18;;;;;;;35.55;16.42;;;;;;;-0.81;77.31;99462.63;4485501;32;34559;-70
2022/12/14 08:03:58;;;;;;;34.47;16.73;;;;;;;-0.78;77.49;99456.91;4485008;32;34196;-69
2022/12/14 08:06:28;;;;;;;31.65;16.73;;;;;;;-0.51;76.11;99462.50;4480388;32;34076;-70
2022/12/14 08:08:56;;;;;;;32.10;15.55;;;;;;;-0.52;75.89;99463.25;4486581;31;33852;-70
2022/12/14 08:11:24;;;;;;;35.03;17.23;;;;;;;-0.20;75.69;99461.69;4489723;31;33661;-70
2022/12/14 08:13:55;;;;;;;36.38;16.48;;;;;;;-0.63;76.43;99458.19;4484125;32;33979;-70
2022/12/14 08:16:24;;;;;;;33.50;17.08;;;;;;;-0.63;76.63;99448.00;4483158;32;34331;-70
2022/12/14 08:18:53;;;;;;;31.58;15.40;;;;;;;-0.57;76.76;99432.34;4480844;32;33587;-70
2022/12/14 08:21:21;;;;;;;35.45;17.08;;;;;;;-0.73;76.95;99440.38;4481453;31;34432;-70
2022/12/14 08:23:50;;;;;;;39.35;17.50;;;;;;;-0.69;76.63;99439.88;4486400;31;33608;-70
2022/12/14 08:26:18;;;;;;;36.72;17.80;;;;;;;-0.12;75.30;99453.78;4472741;32;33387;-70
2022/12/14 08:28:45;;;;;;;38.20;17.42;;;;;;;-0.28;75.27;99454.22;4483928;31;33694;-70
2022/12/14 08:31:19;;;;;;;35.83;16.10;;;;;;;-0.52;76.27;99455.62;4484430;32;33808;-70
2022/12/14 08:33:47;;;;;;;36.58;16.30;;;;;;;-0.23;76.15;99450.41;4488323;31;33750;-70
2022/12/14 08:36:21;;;;;;;36.83;19.25;;;;;;;-0.27;76.56;99448.34;4496033;31;33286;-70
2022/12/14 08:38:56;;;;;;;38.90;18.62;;;;;;;-0.34;75.94;99441.88;4479882;31;33876;-70
2022/12/14 08:41:25;;;;;;;36.92;17.17;;;;;;;-0.36;76.18;99428.13;4480559;31;33997;-70
2022/12/14 08:43:55;;;;;;;39.13;18.33;;;;;;;0.21;73.91;99424.16;4478880;32;34445;-70
2022/12/14 08:46:24;;;;;;;39.10;18.58;;;;;;;-0.05;74.36;99428.94;4494398;31;34073;-70
2022/12/14 08:48:52;;;;;;;34.33;15.50;;;;;;;0.05;74.08;99407.66;4486646;31;32264;-70
2022/12/14 08:51:23;;;;;;;38.97;18.73;;;;;;;0.08;73.82;99418.09;4476393;32;33871;-70
2022/12/14 08:53:51;;;;;;;37.00;16.73;;;;;;;0.11;73.41;99410.69;4485561;32;34350;-70
2022/12/14 08:56:24;;;;;;;35.15;17.27;;;;;;;-0.24;74.56;99401.13;4495477;31;33337;-70
2022/12/14 08:58:52;;;;;;;35.75;17.17;;;;;;;0.04;74.30;99404.97;4473343;32;33794;-70
2022/12/14 09:01:25;;;;;;;35.95;18.05;;;;;;;-0.04;73.36;99401.81;4489563;31;33890;-70
2022/12/14 09:04:06;;;;;;;41.53;18.85;;;;;;;0.23;72.49;99399.69;4485311;32;33775;-70
2022/12/14 09:06:37;;;;;;;39.53;16.48;;;;;;;-0.17;73.88;99405.06;4495374;31;34310;-70
2022/12/14 09:09:06;;;;;;;38.72;18.23;;;;;;;0.21;72.31;99408.88;4485457;32;33936;-70
2022/12/14 09:11:43;;;;;;;35.08;16.70;;;;;;;0.38;71.64;99406.00;4485460;32;34412;-70
2022/12/14 09:14:10;;;;;;;35.33;16.37;;;;;;;0.24;72.55;99398.94;4487654;31;33766;-69
2022/12/14 09:16:38;;;;;;;36.17;16.40;;;;;;;-0.20;74.19;99408.22;4493436;31;34151;-71
2022/12/14 09:19:07;;;;;;;32.35;16.77;;;;;;;0.16;72.65;99396.66;4485266;32;33840;-69
2022/12/14 09:21:34;;;;;;;34.83;14.95;;;;;;;-0.05;73.64;99405.16;4490494;31;33868;-69
2022/12/14 09:24:01;;;;;;;38.90;19.35;;;;;;;0.17;72.13;99403.56;4488885;31;33820;-69
2022/12/14 09:26:29;;;;;;;33.55;15.35;;;;;;;0.16;73.10;99411.94;4496289;31;33327;-69
2022/12/14 09:28:57;;;;;;;35.92;17.98;;;;;;;0.72;70.99;99401.84;4489896;31;34195;-69
2022/12/14 09:31:25;;;;;;;30.30;14.18;;;;;;;0.38;72.33;99388.16;4484212;32;33362;-69
2022/12/14 09:33:53;;;;;;;34.33;16.27;;;;;;;0.16;72.32;99391.56;4489774;31;33958;-69
2022/12/14 09:36:24;;;;;;;32.78;15.43;;;;;;;0.05;72.43;99387.28;4493265;31;34566;-70
2022/12/14 09:38:54;;;;;;;33.80;16.42;;;;;;;0.15;73.45;99384.69;4497310;31;34393;-69
2022/12/14 09:41:29;;;;;;;29.98;14.27;;;;;;;0.12;73.72;99384.47;4492922;31;34325;-70
2022/12/14 09:44:24;;;;;;;34.47;14.57;;;;;;;0.29;72.95;99373.06;4496936;31;33899;-69
2022/12/14 09:47:10;;;;;;;34.38;14.38;;;;;;;-0.23;73.97;99367.28;4489558;31;34262;-69
2022/12/14 09:49:53;;;;;;;28.48;13.90;;;;;;;0.22;71.69;99354.63;4490663;31;34054;-69
2022/12/14 09:52:45;;;;;;;32.90;15.23;;;;;;;0.23;72.43;99349.62;4468248;32;34014;-69
2022/12/14 09:55:44;;;;;;;30.48;14.90;;;;;;;0.23;71.82;99341.09;4475144;32;33580;-69
2022/12/14 09:58:17;;;;;;;28.90;14.35;;;;;;;0.39;72.21;99333.91;4485518;31;33190;-69
2022/12/14 10:01:04;;;;;;;31.23;15.05;;;;;;;0.18;73.19;99323.81;4489861;31;32637;-69
2022/12/14 10:03:58;;;;;;;28.98;13.55;;;;;;;0.54;71.57;99335.06;4489384;31;33983;-69
2022/12/14 10:06:38;;;;;;;30.67;14.90;;;;;;;0.57;71.18;99331.84;4484604;32;33765;-69
2022/12/14 10:09:09;;;;;;;28.48;13.55;;;;;;;0.96;69.61;99346.72;4485510;31;33317;-70
2022/12/14 10:11:54;;;;;;;35.42;15.55;;;;;;;0.91;70.14;99337.84;4477795;32;32904;-69
2022/12/14 10:14:42;;;;;;;36.40;16.45;;;;;;;0.83;70.05;99335.50;4484642;31;34316;-69
2022/12/14 10:17:16;;;;;;;31.30;14.60;;;;;;;1.02;69.19;99340.31;4479549;32;34439;-70
2022/12/14 10:19:55;;;;;;;30.60;14.68;;;;;;;1.14;68.39;99347.22;4480682;31;33628;-70
2022/12/14 10:22:29;;;;;;;33.03;14.68;;;;;;;0.81;69.31;99330.28;4485111;31;33462;-70
2022/12/14 10:24:57;;;;;;;;;;;;;;;0.93;69.07;99331.22;4483882;32;34317;-70
2022/12/14 10:27:26;;;;;;;34.90;14.55;;;;;;;0.72;70.86;99314.31;4487245;31;34867;-70
2022/12/14 10:30:16;;;;;;;29.90;13.50;;;;;;;0.81;69.57;99309.88;4474193;32;33425;-70
2022/12/14 10:32:48;;;;;;;32.72;14.70;;;;;;;1.04;68.61;99305.59;4495190;31;33838;-70
2022/12/14 10:35:26;;;;;;;31.98;14.90;;;;;;;1.12;68.33;99304.50;4484920;32;33782;-70
2022/12/14 10:38:11;;;;;;;30.45;14.65;;;;;;;0.86;69.03;99306.00;4484886;32;34543;-70
2022/12/14 10:40:40;;;;;;;;;;;;;;;0.86;69.53;99303.47;4470348;31;33588;-70
2022/12/14 10:43:49;;;;;;;29.80;14.18;;;;;;;0.71;71.03;99287.03;4474292;31;34080;-70
2022/12/14 10:46:22;;;;;;;28.80;14.23;;;;;;;0.80;69.57;99285.16;4427897;32;33505;-70
2022/12/14 10:49:09;;;;;;;28.87;14.43;;;;;;;1.46;67.93;99281.47;4473792;31;34369;-70
2022/12/14 10:51:47;;;;;;;30.35;14.43;;;;;;;1.13;67.98;99283.34;4484691;31;33821;-70
2022/12/14 10:54:26;;;;;;;28.02;14.57;;;;;;;0.97;69.08;99277.09;4491482;31;34379;-69
2022/12/14 10:56:54;;;;;;;28.75;13.77;;;;;;;0.58;70.99;99273.38;4481422;31;34699;-70
2022/12/14 10:59:24;;;;;;;27.37;13.30;;;;;;;1.07;68.94;99272.69;4494512;31;34583;-69
2022/12/14 11:01:57;;;;;;;30.35;14.80;;;;;;;0.94;69.26;99281.09;4498852;31;33176;-70
2022/12/14 11:04:31;;;;;;;32.35;14.80;;;;;;;1.33;68.78;99272.94;4495181;31;34347;-70
2022/12/14 11:07:02;;;;;;;28.25;13.68;;;;;;;1.15;68.12;99277.56;4493711;31;33830;-70
2022/12/14 11:09:30;;;;;;;25.98;12.90;;;;;;;1.21;67.48;99272.03;4498224;31;34560;-70
2022/12/14 11:12:04;;;;;;;27.98;14.48;;;;;;;1.04;68.11;99278.44;4497907;31;33532;-70
2022/12/14 11:14:33;;;;;;;30.05;14.27;;;;;;;1.42;67.79;99272.69;4496217;31;33733;-71
2022/12/14 11:17:00;;;;;;;25.83;13.62;;;;;;;1.11;68.21;99277.25;4483629;32;34054;-70
2022/12/14 11:19:28;;;;;;;30.95;13.50;;;;;;;1.27;67.00;99262.25;4482724;31;34261;-71
2022/12/14 11:22:12;;;;;;;25.75;12.27;;;;;;;1.23;67.79;99259.38;4483064;31;33399;-71
2022/12/14 11:24:48;;;;;;;29.42;13.57;;;;;;;1.09;68.40;99248.19;4492392;31;33913;-71
2022/12/14 11:27:19;;;;;;;32.08;14.18;;;;;;;1.21;68.97;99241.41;4490025;31;34680;-71
2022/12/14 11:29:48;;;;;;;29.87;12.93;;;;;;;1.35;68.42;99243.31;4490900;31;33624;-71
2022/12/14 11:32:23;;;;;;;26.08;11.70;;;;;;;1.35;67.40;99244.94;4488684;31;34131;-71
2022/12/14 11:34:54;;;;;;;28.45;13.48;;;;;;;1.36;68.19;99227.19;4490010;31;33541;-71
2022/12/14 11:37:25;;;;;;;29.67;14.68;;;;;;;1.54;66.73;99225.06;4482271;31;35204;-70
2022/12/14 11:39:58;;;;;;;28.02;13.88;;;;;;;1.53;66.70;99215.66;4479946;31;33969;-71
2022/12/14 11:42:26;;;;;;;32.83;16.15;;;;;;;1.89;66.54;99221.56;4484863;31;33273;-71
2022/12/14 11:44:53;;;;;;;28.20;14.90;;;;;;;2.14;63.98;99213.94;4492341;31;33793;-71
2022/12/14 11:47:22;;;;;;;34.92;17.37;;;;;;;2.08;64.01;99208.37;4485254;31;34805;-71
2022/12/14 11:49:53;;;;;;;28.08;13.98;;;;;;;1.67;65.02;99208.94;4482661;31;34292;-70
2022/12/14 11:52:22;;;;;;;28.87;13.93;;;;;;;1.61;65.85;99203.41;4489577;31;33266;-71
2022/12/14 11:54:52;;;;;;;32.63;14.70;;;;;;;1.73;65.62;99199.16;4494753;31;34355;-71
2022/12/14 11:57:47;;;;;;;30.98;14.27;;;;;;;1.55;66.63;99193.66;4483218;31;33868;-71
2022/12/14 12:00:24;;;;;;;30.00;13.45;;;;;;;1.64;66.06;99190.88;4478073;32;34740;-71